sensor_id;sensor_type;location;lat;lon;timestamp;pressure;altitude;pressure_sealevel;temperature;humidity
79455;BME280;68900;52.134;5.420;2023-07-29T00:01:34;100859.16;;;18.30;81.80
79455;BME280;68900;52.134;5.420;2023-07-29T00:04:02;100849.28;;;18.29;81.95
79455;BME280;68900;52.134;5.420;2023-07-29T00:06:29;100850.31;;;18.28;81.99
79455;BME280;68900;52.134;5.420;2023-07-29T00:09:04;100854.94;;;18.27;81.68
79455;BME280;68900;52.134;5.420;2023-07-29T00:11:31;100854.09;;;18.27;81.64
79455;BME280;68900;52.134;5.420;2023-07-29T00:14:07;100844.19;;;18.19;81.79
79455;BME280;68900;52.134;5.420;2023-07-29T00:16:33;100832.81;;;18.16;81.91
79455;BME280;68900;52.134;5.420;2023-07-29T00:19:02;100840.34;;;18.14;81.86
79455;BME280;68900;52.134;5.420;2023-07-29T00:21:29;100824.19;;;18.12;81.89
79455;BME280;68900;52.134;5.420;2023-07-29T00:23:55;100826.69;;;18.14;81.83
79455;BME280;68900;52.134;5.420;2023-07-29T00:26:24;100818.72;;;18.12;81.77
79455;BME280;68900;52.134;5.420;2023-07-29T00:28:52;100821.84;;;18.09;81.47
79455;BME280;68900;52.134;5.420;2023-07-29T00:31:19;100818.88;;;18.04;81.55
79455;BME280;68900;52.134;5.420;2023-07-29T00:33:45;100813.63;;;18.02;81.71
79455;BME280;68900;52.134;5.420;2023-07-29T00:36:12;100798.47;;;18.00;81.79
79455;BME280;68900;52.134;5.420;2023-07-29T00:38:38;100796.59;;;18.00;82.25
79455;BME280;68900;52.134;5.420;2023-07-29T00:41:05;100790.28;;;18.00;82.29
79455;BME280;68900;52.134;5.420;2023-07-29T00:43:31;100812.78;;;18.02;81.83
79455;BME280;68900;52.134;5.420;2023-07-29T00:45:59;100827.28;;;18.02;81.57
79455;BME280;68900;52.134;5.420;2023-07-29T00:48:26;100815.88;;;17.99;82.24
79455;BME280;68900;52.134;5.420;2023-07-29T00:50:54;100827.47;;;18.01;82.23
79455;BME280;68900;52.134;5.420;2023-07-29T00:53:20;100828.50;;;18.00;82.24
79455;BME280;68900;52.134;5.420;2023-07-29T00:55:47;100822.84;;;18.01;81.93
79455;BME280;68900;52.134;5.420;2023-07-29T00:58:14;100813.38;;;17.97;82.33
79455;BME280;68900;52.134;5.420;2023-07-29T01:00:41;100807.25;;;17.95;82.40
79455;BME280;68900;52.134;5.420;2023-07-29T01:03:08;100798.81;;;17.90;82.29
79455;BME280;68900;52.134;5.420;2023-07-29T01:06:05;100803.66;;;17.88;82.52
79455;BME280;68900;52.134;5.420;2023-07-29T01:08:54;100799.69;;;17.91;82.20
79455;BME280;68900;52.134;5.420;2023-07-29T01:13:58;100805.34;;;17.89;82.32
79455;BME280;68900;52.134;5.420;2023-07-29T01:16:34;100809.31;;;17.87;82.15
79455;BME280;68900;52.134;5.420;2023-07-29T01:19:06;100806.81;;;17.92;81.80
79455;BME280;68900;52.134;5.420;2023-07-29T01:21:35;100813.13;;;17.92;81.98
79455;BME280;68900;52.134;5.420;2023-07-29T01:24:03;100804.88;;;17.86;82.00
79455;BME280;68900;52.134;5.420;2023-07-29T01:26:30;100799.59;;;17.78;82.23
79455;BME280;68900;52.134;5.420;2023-07-29T01:28:57;100804.38;;;17.76;82.53
79455;BME280;68900;52.134;5.420;2023-07-29T01:31:34;100807.53;;;17.73;82.38
79455;BME280;68900;52.134;5.420;2023-07-29T01:34:09;100804.19;;;17.71;82.89
79455;BME280;68900;52.134;5.420;2023-07-29T01:36:37;100807.09;;;17.69;83.21
79455;BME280;68900;52.134;5.420;2023-07-29T01:39:07;100811.69;;;17.69;83.09
79455;BME280;68900;52.134;5.420;2023-07-29T01:41:35;100807.09;;;17.69;83.16
79455;BME280;68900;52.134;5.420;2023-07-29T01:44:03;100806.66;;;17.65;83.00
79455;BME280;68900;52.134;5.420;2023-07-29T01:46:33;100805.81;;;17.65;83.67
79455;BME280;68900;52.134;5.420;2023-07-29T01:49:00;100802.22;;;17.64;83.25
79455;BME280;68900;52.134;5.420;2023-07-29T01:51:27;100792.34;;;17.63;83.65
79455;BME280;68900;52.134;5.420;2023-07-29T01:53:53;100798.84;;;17.62;83.81
79455;BME280;68900;52.134;5.420;2023-07-29T01:56:21;100801.38;;;17.64;83.84
79455;BME280;68900;52.134;5.420;2023-07-29T01:58:48;100792.34;;;17.63;83.55
79455;BME280;68900;52.134;5.420;2023-07-29T02:01:14;100788.59;;;17.64;83.58
79455;BME280;68900;52.134;5.420;2023-07-29T02:03:43;100782.72;;;17.67;83.31
79455;BME280;68900;52.134;5.420;2023-07-29T02:06:10;100786.69;;;17.65;83.45
79455;BME280;68900;52.134;5.420;2023-07-29T02:08:36;100785.44;;;17.67;84.43
79455;BME280;68900;52.134;5.420;2023-07-29T02:11:03;100785.25;;;17.69;84.33
79455;BME280;68900;52.134;5.420;2023-07-29T02:13:29;100781.69;;;17.69;84.80
79455;BME280;68900;52.134;5.420;2023-07-29T02:15:55;100784.41;;;17.69;84.90
79455;BME280;68900;52.134;5.420;2023-07-29T02:18:22;100786.72;;;17.72;84.93
79455;BME280;68900;52.134;5.420;2023-07-29T02:20:48;100770.59;;;17.70;85.03
79455;BME280;68900;52.134;5.420;2023-07-29T02:23:16;100775.19;;;17.70;84.56
79455;BME280;68900;52.134;5.420;2023-07-29T02:25:43;100771.81;;;17.67;84.52
79455;BME280;68900;52.134;5.420;2023-07-29T02:28:10;100773.91;;;17.65;84.78
79455;BME280;68900;52.134;5.420;2023-07-29T02:30:37;100774.75;;;17.66;84.82
79455;BME280;68900;52.134;5.420;2023-07-29T02:33:03;100774.09;;;17.64;84.74
79455;BME280;68900;52.134;5.420;2023-07-29T02:35:30;100773.25;;;17.63;84.90
79455;BME280;68900;52.134;5.420;2023-07-29T02:37:56;100773.44;;;17.62;85.02
79455;BME280;68900;52.134;5.420;2023-07-29T02:40:24;100774.69;;;17.59;85.26
79455;BME280;68900;52.134;5.420;2023-07-29T02:42:53;100773.66;;;17.60;85.00
79455;BME280;68900;52.134;5.420;2023-07-29T02:45:19;100769.22;;;17.59;85.53
79455;BME280;68900;52.134;5.420;2023-07-29T02:47:59;100767.53;;;17.58;85.11
79455;BME280;68900;52.134;5.420;2023-07-29T02:50:26;100764.16;;;17.56;85.53
79455;BME280;68900;52.134;5.420;2023-07-29T02:52:52;100766.22;;;17.54;85.61
79455;BME280;68900;52.134;5.420;2023-07-29T02:55:19;100762.47;;;17.55;85.52
79455;BME280;68900;52.134;5.420;2023-07-29T02:57:45;100765.19;;;17.55;85.79
79455;BME280;68900;52.134;5.420;2023-07-29T03:00:12;100759.91;;;17.54;85.70
79455;BME280;68900;52.134;5.420;2023-07-29T03:02:39;100763.50;;;17.54;85.93
79455;BME280;68900;52.134;5.420;2023-07-29T03:05:06;100764.75;;;17.52;85.80
79455;BME280;68900;52.134;5.420;2023-07-29T03:07:32;100763.91;;;17.51;85.66
79455;BME280;68900;52.134;5.420;2023-07-29T03:09:59;100760.75;;;17.48;85.81
79455;BME280;68900;52.134;5.420;2023-07-29T03:12:25;100748.97;;;17.47;85.39
79455;BME280;68900;52.134;5.420;2023-07-29T03:14:53;100748.31;;;17.45;85.73
79455;BME280;68900;52.134;5.420;2023-07-29T03:17:19;100748.31;;;17.45;85.50
79455;BME280;68900;52.134;5.420;2023-07-29T03:19:46;100744.56;;;17.46;85.86
79455;BME280;68900;52.134;5.420;2023-07-29T03:22:12;100754.81;;;17.44;85.76
79455;BME280;68900;52.134;5.420;2023-07-29T03:24:38;100743.91;;;17.44;85.43
79455;BME280;68900;52.134;5.420;2023-07-29T03:27:05;100744.13;;;17.43;85.24
79455;BME280;68900;52.134;5.420;2023-07-29T03:29:31;100757.94;;;17.41;85.87
79455;BME280;68900;52.134;5.420;2023-07-29T03:31:59;100748.06;;;17.40;85.67
79455;BME280;68900;52.134;5.420;2023-07-29T03:34:25;100751.81;;;17.39;85.51
79455;BME280;68900;52.134;5.420;2023-07-29T03:36:55;100761.88;;;17.39;85.40
79455;BME280;68900;52.134;5.420;2023-07-29T03:39:46;100753.09;;;17.37;85.65
79455;BME280;68900;52.134;5.420;2023-07-29T03:42:13;100753.09;;;17.37;85.86
79455;BME280;68900;52.134;5.420;2023-07-29T03:44:39;100750.34;;;17.37;85.93
79455;BME280;68900;52.134;5.420;2023-07-29T03:47:06;100746.13;;;17.34;86.12
79455;BME280;68900;52.134;5.420;2023-07-29T03:49:33;100749.69;;;17.35;85.52
79455;BME280;68900;52.134;5.420;2023-07-29T03:51:59;100757.69;;;17.36;85.74
79455;BME280;68900;52.134;5.420;2023-07-29T03:54:26;100756.84;;;17.36;85.72
79455;BME280;68900;52.134;5.420;2023-07-29T03:56:52;100757.03;;;17.34;85.97
79455;BME280;68900;52.134;5.420;2023-07-29T03:59:19;100759.31;;;17.31;85.66
79455;BME280;68900;52.134;5.420;2023-07-29T04:01:45;100764.78;;;17.31;85.31
79455;BME280;68900;52.134;5.420;2023-07-29T04:04:12;100771.91;;;17.32;85.50
79455;BME280;68900;52.134;5.420;2023-07-29T04:06:39;100761.41;;;17.29;85.37
79455;BME280;68900;52.134;5.420;2023-07-29T04:09:05;100752.97;;;17.23;85.27
79455;BME280;68900;52.134;5.420;2023-07-29T04:11:37;100757.59;;;17.23;85.05
79455;BME280;68900;52.134;5.420;2023-07-29T04:14:03;100762.38;;;17.21;85.29
79455;BME280;68900;52.134;5.420;2023-07-29T04:16:30;100762.13;;;17.16;84.64
79455;BME280;68900;52.134;5.420;2023-07-29T04:18:59;100762.97;;;17.16;85.24
79455;BME280;68900;52.134;5.420;2023-07-29T04:21:25;100751.44;;;17.14;85.15
79455;BME280;68900;52.134;5.420;2023-07-29T04:23:52;100749.75;;;17.13;84.68
79455;BME280;68900;52.134;5.420;2023-07-29T04:26:18;100752.41;;;17.07;84.63
79455;BME280;68900;52.134;5.420;2023-07-29T04:28:45;100744.03;;;17.08;84.65
79455;BME280;68900;52.134;5.420;2023-07-29T04:31:12;100750.31;;;17.09;84.25
79455;BME280;68900;52.134;5.420;2023-07-29T04:33:41;100754.09;;;17.08;84.38
79455;BME280;68900;52.134;5.420;2023-07-29T04:36:07;100757.84;;;17.07;84.63
79455;BME280;68900;52.134;5.420;2023-07-29T04:38:34;100762.44;;;17.06;84.15
79455;BME280;68900;52.134;5.420;2023-07-29T04:41:01;100762.66;;;17.05;84.38
79455;BME280;68900;52.134;5.420;2023-07-29T04:43:31;100758.25;;;17.04;84.13
79455;BME280;68900;52.134;5.420;2023-07-29T04:45:57;100757.00;;;17.06;83.74
79455;BME280;68900;52.134;5.420;2023-07-29T04:48:30;100761.63;;;17.06;83.77
79455;BME280;68900;52.134;5.420;2023-07-29T04:50:57;100758.66;;;17.01;83.76
79455;BME280;68900;52.134;5.420;2023-07-29T04:53:23;100761.56;;;16.99;84.04
79455;BME280;68900;52.134;5.420;2023-07-29T04:55:50;100759.69;;;17.00;83.87
79455;BME280;68900;52.134;5.420;2023-07-29T04:58:16;100763.44;;;16.99;83.48
79455;BME280;68900;52.134;5.420;2023-07-29T05:00:43;100765.97;;;17.00;83.60
79455;BME280;68900;52.134;5.420;2023-07-29T05:03:10;100762.00;;;17.03;84.08
79455;BME280;68900;52.134;5.420;2023-07-29T05:05:37;100776.28;;;17.05;83.60
79455;BME280;68900;52.134;5.420;2023-07-29T05:08:04;100770.84;;;17.05;83.46
79455;BME280;68900;52.134;5.420;2023-07-29T05:10:30;100777.31;;;17.04;83.75
79455;BME280;68900;52.134;5.420;2023-07-29T05:12:57;100777.50;;;17.02;83.43
79455;BME280;68900;52.134;5.420;2023-07-29T05:15:23;100771.88;;;17.04;83.31
79455;BME280;68900;52.134;5.420;2023-07-29T05:17:50;100777.31;;;17.04;83.71
79455;BME280;68900;52.134;5.420;2023-07-29T05:20:19;100783.22;;;17.07;83.31
79455;BME280;68900;52.134;5.420;2023-07-29T05:22:45;100789.34;;;17.09;83.54
79455;BME280;68900;52.134;5.420;2023-07-29T05:25:12;100782.63;;;17.12;83.73
79455;BME280;68900;52.134;5.420;2023-07-29T05:27:42;100783.88;;;17.09;83.57
79455;BME280;68900;52.134;5.420;2023-07-29T05:30:08;100790.81;;;17.12;83.57
79455;BME280;68900;52.134;5.420;2023-07-29T05:32:37;100780.56;;;17.14;83.38
79455;BME280;68900;52.134;5.420;2023-07-29T05:35:05;100778.28;;;17.17;83.20
79455;BME280;68900;52.134;5.420;2023-07-29T05:37:32;100783.34;;;17.20;83.57
79455;BME280;68900;52.134;5.420;2023-07-29T05:39:58;100794.72;;;17.24;83.42
79455;BME280;68900;52.134;5.420;2023-07-29T05:42:25;100789.91;;;17.26;83.61
79455;BME280;68900;52.134;5.420;2023-07-29T05:44:51;100792.44;;;17.28;83.53
79455;BME280;68900;52.134;5.420;2023-07-29T05:47:18;100793.28;;;17.28;84.06
79455;BME280;68900;52.134;5.420;2023-07-29T05:49:44;100800.03;;;17.32;83.57
79455;BME280;68900;52.134;5.420;2023-07-29T05:52:11;100799.25;;;17.38;83.73
79455;BME280;68900;52.134;5.420;2023-07-29T05:54:37;100791.09;;;17.38;83.72
79455;BME280;68900;52.134;5.420;2023-07-29T05:57:04;100791.31;;;17.43;83.54
79455;BME280;68900;52.134;5.420;2023-07-29T05:59:31;100793.00;;;17.44;83.28
79455;BME280;68900;52.134;5.420;2023-07-29T06:01:57;100791.78;;;17.47;84.12
79455;BME280;68900;52.134;5.420;2023-07-29T06:04:24;100789.69;;;17.49;83.62
79455;BME280;68900;52.134;5.420;2023-07-29T06:06:53;100793.06;;;17.51;83.70
79455;BME280;68900;52.134;5.420;2023-07-29T06:09:22;100792.47;;;17.55;83.38
79455;BME280;68900;52.134;5.420;2023-07-29T06:11:49;100795.00;;;17.57;83.31
79455;BME280;68900;52.134;5.420;2023-07-29T06:14:21;100792.75;;;17.60;83.55
79455;BME280;68900;52.134;5.420;2023-07-29T06:16:47;100793.00;;;17.65;83.41
79455;BME280;68900;52.134;5.420;2023-07-29T06:19:14;100786.94;;;17.70;83.68
79455;BME280;68900;52.134;5.420;2023-07-29T06:21:41;100786.59;;;17.80;83.51
79455;BME280;68900;52.134;5.420;2023-07-29T06:24:07;100779.94;;;17.89;83.14
79455;BME280;68900;52.134;5.420;2023-07-29T06:26:36;100785.44;;;17.95;82.89
79455;BME280;68900;52.134;5.420;2023-07-29T06:29:03;100782.53;;;18.03;82.98
79455;BME280;68900;52.134;5.420;2023-07-29T06:31:29;100787.59;;;18.06;83.19
79455;BME280;68900;52.134;5.420;2023-07-29T06:33:56;100797.25;;;18.09;82.84
79455;BME280;68900;52.134;5.420;2023-07-29T06:36:23;100796.22;;;18.10;82.36
79455;BME280;68900;52.134;5.420;2023-07-29T06:38:49;100794.16;;;18.12;82.74
79455;BME280;68900;52.134;5.420;2023-07-29T06:41:16;100796.06;;;18.18;82.88
79455;BME280;68900;52.134;5.420;2023-07-29T06:43:45;100800.72;;;18.24;82.42
79455;BME280;68900;52.134;5.420;2023-07-29T06:46:12;100797.81;;;18.32;82.67
79455;BME280;68900;52.134;5.420;2023-07-29T06:48:39;100798.47;;;18.34;81.98
79455;BME280;68900;52.134;5.420;2023-07-29T06:51:05;100805.81;;;18.34;82.35
79455;BME280;68900;52.134;5.420;2023-07-29T06:53:32;100807.94;;;18.38;82.44
79455;BME280;68900;52.134;5.420;2023-07-29T06:56:00;100810.47;;;18.46;82.11
79455;BME280;68900;52.134;5.420;2023-07-29T06:58:27;100803.56;;;18.50;82.38
79455;BME280;68900;52.134;5.420;2023-07-29T07:00:53;100816.44;;;18.57;82.11
79455;BME280;68900;52.134;5.420;2023-07-29T07:03:23;100803.22;;;18.53;82.06
79455;BME280;68900;52.134;5.420;2023-07-29T07:05:50;100804.88;;;18.54;82.08
79455;BME280;68900;52.134;5.420;2023-07-29T07:08:31;100808.91;;;18.59;81.62
79455;BME280;68900;52.134;5.420;2023-07-29T07:10:57;100809.94;;;18.64;81.65
79455;BME280;68900;52.134;5.420;2023-07-29T07:13:24;100805.97;;;18.67;81.95
79455;BME280;68900;52.134;5.420;2023-07-29T07:15:50;100809.34;;;18.69;81.63
79455;BME280;68900;52.134;5.420;2023-07-29T07:18:17;100808.28;;;18.70;81.82
79455;BME280;68900;52.134;5.420;2023-07-29T07:20:48;100811.03;;;18.70;81.89
79455;BME280;68900;52.134;5.420;2023-07-29T07:23:15;100812.72;;;18.71;81.53
79455;BME280;68900;52.134;5.420;2023-07-29T07:25:44;100821.97;;;18.70;81.57
79455;BME280;68900;52.134;5.420;2023-07-29T07:28:11;100812.91;;;18.69;81.56
79455;BME280;68900;52.134;5.420;2023-07-29T07:30:40;100822.63;;;18.72;81.36
79455;BME280;68900;52.134;5.420;2023-07-29T07:33:10;100818.19;;;18.71;81.70
79455;BME280;68900;52.134;5.420;2023-07-29T07:35:37;100818.19;;;18.71;81.34
79455;BME280;68900;52.134;5.420;2023-07-29T07:38:04;100828.09;;;18.72;81.58
79455;BME280;68900;52.134;5.420;2023-07-29T07:40:31;100813.16;;;18.74;81.23
79455;BME280;68900;52.134;5.420;2023-07-29T07:42:57;100826.19;;;18.79;81.68
79455;BME280;68900;52.134;5.420;2023-07-29T07:45:31;100823.28;;;18.80;81.32
79455;BME280;68900;52.134;5.420;2023-07-29T07:47:58;100825.38;;;18.85;81.34
79455;BME280;68900;52.134;5.420;2023-07-29T07:50:25;100822.03;;;18.89;81.42
79455;BME280;68900;52.134;5.420;2023-07-29T07:52:55;100816.78;;;18.94;81.06
79455;BME280;68900;52.134;5.420;2023-07-29T07:55:21;100821.63;;;19.06;81.37
79455;BME280;68900;52.134;5.420;2023-07-29T07:57:47;100817.25;;;19.11;80.22
79455;BME280;68900;52.134;5.420;2023-07-29T08:00:14;100821.88;;;19.17;80.62
79455;BME280;68900;52.134;5.420;2023-07-29T08:02:43;100825.03;;;19.21;80.23
79455;BME280;68900;52.134;5.420;2023-07-29T08:05:10;100828.63;;;19.21;80.93
79455;BME280;68900;52.134;5.420;2023-07-29T08:07:37;100823.81;;;19.23;79.71
79455;BME280;68900;52.134;5.420;2023-07-29T08:10:04;100832.00;;;19.23;80.00
79455;BME280;68900;52.134;5.420;2023-07-29T08:12:30;100823.56;;;19.25;79.41
79455;BME280;68900;52.134;5.420;2023-07-29T08:14:57;100831.38;;;19.28;79.57
79455;BME280;68900;52.134;5.420;2023-07-29T08:17:24;100831.19;;;19.36;79.27
79455;BME280;68900;52.134;5.420;2023-07-29T08:19:50;100831.41;;;19.48;79.38
79455;BME280;68900;52.134;5.420;2023-07-29T08:22:17;100829.31;;;19.56;78.96
79455;BME280;68900;52.134;5.420;2023-07-29T08:24:49;100813.31;;;19.60;78.41
79455;BME280;68900;52.134;5.420;2023-07-29T08:27:15;100822.78;;;19.64;78.74
79455;BME280;68900;52.134;5.420;2023-07-29T08:29:42;100825.72;;;19.75;78.54
79455;BME280;68900;52.134;5.420;2023-07-29T08:32:09;100821.72;;;19.78;78.15
79455;BME280;68900;52.134;5.420;2023-07-29T08:34:35;100822.38;;;19.73;77.36
79455;BME280;68900;52.134;5.420;2023-07-29T08:37:02;100834.56;;;19.71;77.51
79455;BME280;68900;52.134;5.420;2023-07-29T08:39:28;100837.75;;;19.68;77.40
79455;BME280;68900;52.134;5.420;2023-07-29T08:42:01;100833.31;;;19.67;78.05
79455;BME280;68900;52.134;5.420;2023-07-29T08:44:35;100830.78;;;19.65;78.22
79455;BME280;68900;52.134;5.420;2023-07-29T08:47:05;100827.22;;;19.65;77.88
79455;BME280;68900;52.134;5.420;2023-07-29T08:49:32;100831.22;;;19.62;78.19
79455;BME280;68900;52.134;5.420;2023-07-29T08:51:59;100827.63;;;19.62;78.17
79455;BME280;68900;52.134;5.420;2023-07-29T08:54:26;100830.78;;;19.65;78.69
79455;BME280;68900;52.134;5.420;2023-07-29T08:56:55;100830.78;;;19.65;78.30
79455;BME280;68900;52.134;5.420;2023-07-29T08:59:23;100829.97;;;19.65;78.11
79455;BME280;68900;52.134;5.420;2023-07-29T09:01:53;100828.88;;;19.66;77.84
79455;BME280;68900;52.134;5.420;2023-07-29T09:04:23;100832.88;;;19.70;76.55
79455;BME280;68900;52.134;5.420;2023-07-29T09:06:56;100829.94;;;19.71;77.07
79455;BME280;68900;52.134;5.420;2023-07-29T09:09:24;100832.88;;;19.70;76.66
79455;BME280;68900;52.134;5.420;2023-07-29T09:12:00;100837.75;;;19.68;77.09
79455;BME280;68900;52.134;5.420;2023-07-29T09:14:26;100840.47;;;19.68;76.79
79455;BME280;68900;52.134;5.420;2023-07-29T09:16:56;100842.56;;;19.92;76.53
79455;BME280;68900;52.134;5.420;2023-07-29T09:19:26;100828.38;;;20.21;76.22
79455;BME280;68900;52.134;5.420;2023-07-29T09:21:53;100827.97;;;20.24;75.48
79455;BME280;68900;52.134;5.420;2023-07-29T09:24:29;100827.97;;;20.24;75.16
79455;BME280;68900;52.134;5.420;2023-07-29T09:26:58;100832.22;;;20.20;75.20
79455;BME280;68900;52.134;5.420;2023-07-29T09:29:28;100827.97;;;20.24;75.99
79455;BME280;68900;52.134;5.420;2023-07-29T09:32:17;100823.94;;;20.27;76.13
79455;BME280;68900;52.134;5.420;2023-07-29T09:34:45;100830.91;;;20.29;75.31
79455;BME280;68900;52.134;5.420;2023-07-29T09:37:21;100821.44;;;20.19;75.16
79455;BME280;68900;52.134;5.420;2023-07-29T09:39:49;100829.03;;;20.17;74.92
79455;BME280;68900;52.134;5.420;2023-07-29T09:42:18;100834.31;;;20.18;75.92
79455;BME280;68900;52.134;5.420;2023-07-29T09:44:45;100832.63;;;20.17;75.43
79455;BME280;68900;52.134;5.420;2023-07-29T09:47:25;100834.72;;;20.22;75.54
79455;BME280;68900;52.134;5.420;2023-07-29T09:49:52;100828.59;;;20.26;74.78
79455;BME280;68900;52.134;5.420;2023-07-29T09:52:22;100825.63;;;20.28;74.85
79455;BME280;68900;52.134;5.420;2023-07-29T09:54:48;100831.31;;;20.26;74.96
79455;BME280;68900;52.134;5.420;2023-07-29T09:57:17;100837.44;;;20.22;75.59
79455;BME280;68900;52.134;5.420;2023-07-29T09:59:54;100844.41;;;20.18;76.31
79455;BME280;68900;52.134;5.420;2023-07-29T10:02:21;100852.88;;;20.03;77.97
79455;BME280;68900;52.134;5.420;2023-07-29T10:04:48;100847.84;;;19.87;79.21
79455;BME280;68900;52.134;5.420;2023-07-29T10:07:15;100849.94;;;19.72;79.94
79455;BME280;68900;52.134;5.420;2023-07-29T10:09:43;100843.44;;;19.73;81.33
79455;BME280;68900;52.134;5.420;2023-07-29T10:12:11;100839.44;;;19.69;81.25
79455;BME280;68900;52.134;5.420;2023-07-29T10:14:41;100849.31;;;19.70;81.61
79455;BME280;68900;52.134;5.420;2023-07-29T10:17:08;100843.63;;;19.71;82.02
79455;BME280;68900;52.134;5.420;2023-07-29T10:19:36;100852.06;;;19.76;81.21
79455;BME280;68900;52.134;5.420;2023-07-29T10:22:03;100852.47;;;19.80;82.00
79455;BME280;68900;52.134;5.420;2023-07-29T10:24:32;100852.91;;;19.77;81.33
79455;BME280;68900;52.134;5.420;2023-07-29T10:27:01;100850.16;;;19.70;82.08
79455;BME280;68900;52.134;5.420;2023-07-29T10:29:31;100852.69;;;19.72;81.82
79455;BME280;68900;52.134;5.420;2023-07-29T10:32:02;100855.84;;;19.69;82.50
79455;BME280;68900;52.134;5.420;2023-07-29T10:34:31;100856.91;;;19.68;82.99
79455;BME280;68900;52.134;5.420;2023-07-29T10:37:08;100861.53;;;19.67;82.62
79455;BME280;68900;52.134;5.420;2023-07-29T10:39:40;100867.03;;;19.74;83.19
79455;BME280;68900;52.134;5.420;2023-07-29T10:42:07;100864.91;;;19.76;83.56
79455;BME280;68900;52.134;5.420;2023-07-29T10:47:16;100861.31;;;19.75;83.81
79455;BME280;68900;52.134;5.420;2023-07-29T10:49:44;100857.13;;;19.73;83.91
79455;BME280;68900;52.134;5.420;2023-07-29T10:52:16;100853.34;;;19.74;83.56
79455;BME280;68900;52.134;5.420;2023-07-29T10:54:47;100839.66;;;19.74;84.17
79455;BME280;68900;52.134;5.420;2023-07-29T10:57:15;100843.22;;;19.74;84.76
79455;BME280;68900;52.134;5.420;2023-07-29T10:59:54;100847.63;;;19.75;84.13
79455;BME280;68900;52.134;5.420;2023-07-29T11:02:28;100844.91;;;19.82;84.63
79455;BME280;68900;52.134;5.420;2023-07-29T11:04:55;100846.16;;;19.93;84.62
79455;BME280;68900;52.134;5.420;2023-07-29T11:07:24;100851.81;;;19.98;85.40
79455;BME280;68900;52.134;5.420;2023-07-29T11:09:59;100860.88;;;20.05;84.68
79455;BME280;68900;52.134;5.420;2023-07-29T11:12:48;100859.84;;;20.06;84.10
79455;BME280;68900;52.134;5.420;2023-07-29T11:15:27;100859.59;;;20.07;84.24
79455;BME280;68900;52.134;5.420;2023-07-29T11:18:00;100857.94;;;20.06;83.68
79455;BME280;68900;52.134;5.420;2023-07-29T11:20:29;100861.31;;;19.95;83.09
79455;BME280;68900;52.134;5.420;2023-07-29T11:23:00;100871.44;;;20.01;83.55
79455;BME280;68900;52.134;5.420;2023-07-29T11:25:29;100870.59;;;20.01;82.92
79455;BME280;68900;52.134;5.420;2023-07-29T11:27:58;100859.22;;;19.97;82.17
79455;BME280;68900;52.134;5.420;2023-07-29T11:30:27;100871.00;;;19.91;81.88
79455;BME280;68900;52.134;5.420;2023-07-29T11:32:56;100875.22;;;19.87;82.90
79455;BME280;68900;52.134;5.420;2023-07-29T11:35:32;100869.53;;;19.82;83.13
79455;BME280;68900;52.134;5.420;2023-07-29T11:37:59;100859.66;;;19.74;82.20
79455;BME280;68900;52.134;5.420;2023-07-29T11:40:25;100868.91;;;19.73;81.68
79455;BME280;68900;52.134;5.420;2023-07-29T11:42:52;100863.22;;;19.68;81.91
79455;BME280;68900;52.134;5.420;2023-07-29T11:45:23;100861.75;;;19.66;82.77
79455;BME280;68900;52.134;5.420;2023-07-29T11:48:04;100870.38;;;19.63;82.45
79455;BME280;68900;52.134;5.420;2023-07-29T11:50:30;100866.78;;;19.62;82.16
79455;BME280;68900;52.134;5.420;2023-07-29T11:52:57;100865.97;;;19.68;82.54
79455;BME280;68900;52.134;5.420;2023-07-29T11:55:25;100858.38;;;19.70;82.46
79455;BME280;68900;52.134;5.420;2023-07-29T11:57:52;100864.69;;;19.71;82.86
79455;BME280;68900;52.134;5.420;2023-07-29T12:00:21;100866.78;;;19.75;83.25
79455;BME280;68900;52.134;5.420;2023-07-29T12:02:48;100868.06;;;19.79;84.12
79455;BME280;68900;52.134;5.420;2023-07-29T12:05:16;100860.25;;;19.90;84.05
79455;BME280;68900;52.134;5.420;2023-07-29T12:07:44;100863.00;;;19.96;82.74
79455;BME280;68900;52.134;5.420;2023-07-29T12:10:11;100861.94;;;20.10;83.99
79455;BME280;68900;52.134;5.420;2023-07-29T12:12:50;100852.22;;;20.34;83.38
79455;BME280;68900;52.134;5.420;2023-07-29T12:15:27;100852.78;;;20.49;82.64
79455;BME280;68900;52.134;5.420;2023-07-29T12:17:55;100850.63;;;20.64;82.54
79455;BME280;68900;52.134;5.420;2023-07-29T12:20:24;100845.50;;;20.81;82.46
79455;BME280;68900;52.134;5.420;2023-07-29T12:22:59;100847.94;;;21.02;81.92
79455;BME280;68900;52.134;5.420;2023-07-29T12:25:28;100857.59;;;21.11;80.41
79455;BME280;68900;52.134;5.420;2023-07-29T12:27:55;100840.94;;;21.06;80.20
79455;BME280;68900;52.134;5.420;2023-07-29T12:30:22;100836.56;;;20.99;80.38
79455;BME280;68900;52.134;5.420;2023-07-29T12:32:49;100847.56;;;20.92;80.74
79455;BME280;68900;52.134;5.420;2023-07-29T12:35:16;100845.66;;;20.93;81.56
79455;BME280;68900;52.134;5.420;2023-07-29T12:37:43;100840.13;;;20.99;80.18
79455;BME280;68900;52.134;5.420;2023-07-29T12:40:23;100843.94;;;20.98;80.57
79455;BME280;68900;52.134;5.420;2023-07-29T12:42:51;100840.53;;;21.03;79.18
79455;BME280;68900;52.134;5.420;2023-07-29T12:45:18;100840.31;;;21.04;78.87
79455;BME280;68900;52.134;5.420;2023-07-29T12:47:45;100845.78;;;21.04;79.66
79455;BME280;68900;52.134;5.420;2023-07-29T12:50:11;100841.59;;;21.02;77.92
79455;BME280;68900;52.134;5.420;2023-07-29T12:52:38;100847.94;;;21.02;78.30
79455;BME280;68900;52.134;5.420;2023-07-29T12:55:05;100851.72;;;21.08;79.29
79455;BME280;68900;52.134;5.420;2023-07-29T12:57:32;100847.66;;;21.17;77.91
79455;BME280;68900;52.134;5.420;2023-07-29T12:59:59;100844.44;;;21.27;77.94
79455;BME280;68900;52.134;5.420;2023-07-29T13:02:25;100844.16;;;21.35;78.08